Time;durP1;ratioP1;P1;durP2;ratioP2;P2;SDS_P1;SDS_P2;PMS_P1;PMS_P2;Temp;Humidity;BMP_temperature;BMP_pressure;BME280_temperature;BME280_humidity;BME280_pressure;Samples;Min_cycle;Max_cycle;Signal;HPM_P1;HPM_P2
2022/01/29 00:01:55;;;;;;;4.15;0.77;;;29.40;99.90;;;;;;5034512;28;20443;-79
2022/01/29 00:04:22;;;;;;;3.80;0.95;;;29.40;99.90;;;;;;5034499;28;20057;-77
2022/01/29 00:06:50;;;;;;;4.50;1.10;;;29.40;99.90;;;;;;5033079;28;20395;-79
2022/01/29 00:09:17;;;;;;;4.65;0.88;;;29.40;99.90;;;;;;5034504;28;20022;-78
2022/01/29 00:11:45;;;;;;;5.35;0.90;;;29.60;99.90;;;;;;5033100;28;20360;-79
2022/01/29 00:14:13;;;;;;;3.03;0.65;;;29.40;99.90;;;;;;5033127;28;20486;-76
2022/01/29 00:16:43;;;;;;;4.30;0.80;;;29.40;99.90;;;;;;5034235;28;20552;-79
2022/01/29 00:19:10;;;;;;;4.35;0.80;;;29.50;99.90;;;;;;5034433;28;20399;-78
2022/01/29 00:21:37;;;;;;;2.95;0.60;;;29.80;99.90;;;;;;5034253;28;20037;-78
2022/01/29 00:24:05;;;;;;;4.93;0.80;;;29.80;99.90;;;;;;5034225;28;20021;-78
2022/01/29 00:26:32;;;;;;;2.20;0.70;;;29.90;99.90;;;;;;5032804;28;20112;-77
2022/01/29 00:29:05;;;;;;;3.50;1.00;;;29.80;99.90;;;;;;5034175;28;20605;-77
2022/01/29 00:31:32;;;;;;;2.22;0.75;;;29.80;99.90;;;;;;5034052;28;20025;-77
2022/01/29 00:33:59;;;;;;;4.95;0.80;;;30.00;99.90;;;;;;5034008;28;20021;-78
2022/01/29 00:36:27;;;;;;;6.35;1.00;;;29.90;99.90;;;;;;5033518;28;20032;-77
2022/01/29 00:38:54;;;;;;;5.28;1.10;;;30.00;99.90;;;;;;5032740;28;20394;-78
2022/01/29 00:41:21;;;;;;;3.95;0.95;;;30.10;99.90;;;;;;5033866;28;20111;-77
2022/01/29 00:43:48;;;;;;;4.85;0.77;;;30.30;99.90;;;;;;5033899;28;20096;-77
2022/01/29 00:46:16;;;;;;;2.92;0.52;;;30.30;99.90;;;;;;5033530;28;20037;-75
2022/01/29 00:48:43;;;;;;;3.22;0.77;;;30.50;99.90;;;;;;5032499;28;20053;-79
2022/01/29 00:51:10;;;;;;;4.38;1.00;;;30.50;99.90;;;;;;5033660;28;20048;-77
2022/01/29 00:53:38;;;;;;;2.45;0.60;;;30.40;99.90;;;;;;5032288;28;20017;-77
2022/01/29 00:56:07;;;;;;;3.22;1.15;;;30.30;99.90;;;;;;5033592;28;20100;-76
2022/01/29 00:58:35;;;;;;;3.85;0.88;;;30.30;99.90;;;;;;5032295;28;20029;-78
2022/01/29 01:01:03;;;;;;;5.15;0.77;;;30.60;99.90;;;;;;5033544;28;20075;-77
2022/01/29 01:03:30;;;;;;;3.33;0.80;;;30.80;99.90;;;;;;5031840;28;20504;-77
2022/01/29 01:05:57;;;;;;;4.15;0.82;;;30.90;99.90;;;;;;5033428;28;20032;-78
2022/01/29 01:08:25;;;;;;;4.32;1.10;;;30.60;99.90;;;;;;5033271;28;20026;-78
2022/01/29 01:10:52;;;;;;;3.53;1.10;;;30.50;99.90;;;;;;5033396;28;20017;-77
2022/01/29 01:13:19;;;;;;;0.95;0.43;;;30.20;99.90;;;;;;5033176;28;20091;-77
2022/01/29 01:15:47;;;;;;;3.38;0.70;;;30.20;99.90;;;;;;5033238;28;20013;-79
2022/01/29 01:18:14;;;;;;;5.18;0.98;;;30.60;99.90;;;;;;5031809;28;20022;-78
2022/01/29 01:20:41;;;;;;;4.45;0.90;;;30.70;99.90;;;;;;5033161;28;20025;-77
2022/01/29 01:23:08;;;;;;;4.95;0.93;;;30.20;99.90;;;;;;5031809;28;20037;-78
2022/01/29 01:25:36;;;;;;;3.50;0.90;;;30.20;99.90;;;;;;5031757;28;20429;-77
2022/01/29 01:28:03;;;;;;;1.85;0.70;;;30.20;99.90;;;;;;5032809;28;20037;-77
2022/01/29 01:30:32;;;;;;;3.75;0.80;;;30.00;99.90;;;;;;5032953;28;20486;-77
2022/01/29 01:33:03;;;;;;;4.57;0.80;;;29.90;99.90;;;;;;5032792;28;20021;-77
2022/01/29 01:35:37;;;;;;;6.10;1.02;;;29.40;99.90;;;;;;5033062;28;20386;-78
2022/01/29 01:40:34;;;;;;;3.95;1.08;;;29.40;99.90;;;;;;5032859;28;20034;-78
2022/01/29 01:43:02;;;;;;;5.90;1.23;;;29.80;99.90;;;;;;5032890;28;20115;-79
2022/01/29 01:45:30;;;;;;;4.45;1.10;;;29.70;99.90;;;;;;5032644;28;20410;-78
2022/01/29 01:47:58;;;;;;;3.35;0.80;;;30.10;99.90;;;;;;5031741;28;20029;-78
2022/01/29 01:50:26;;;;;;;5.28;0.80;;;30.10;99.90;;;;;;5032900;28;20013;-79
2022/01/29 01:52:53;;;;;;;5.40;1.00;;;30.40;99.90;;;;;;5032694;28;20017;-80
2022/01/29 01:55:22;;;;;;;3.30;0.93;;;30.30;99.90;;;;;;5032679;28;20021;-78
2022/01/29 01:57:50;;;;;;;3.20;0.90;;;30.10;99.90;;;;;;5032796;28;20034;-79
2022/01/29 02:00:17;;;;;;;5.38;1.30;;;29.80;99.90;;;;;;5032887;28;20026;-77
2022/01/29 02:02:45;;;;;;;5.00;1.05;;;29.80;99.90;;;;;;5032761;28;20445;-78
2022/01/29 02:05:13;;;;;;;3.65;0.90;;;30.00;99.90;;;;;;5031216;28;20494;-79
2022/01/29 02:07:40;;;;;;;4.28;1.13;;;30.20;99.90;;;;;;5031439;28;20057;-78
2022/01/29 02:10:12;;;;;;;4.28;1.15;;;30.20;99.90;;;;;;5032839;28;20048;-78
2022/01/29 02:12:51;;;;;;;5.78;1.30;;;30.50;99.90;;;;;;5032614;28;20013;-77
2022/01/29 02:15:20;;;;;;;3.60;0.80;;;30.70;99.90;;;;;;5032483;28;20017;-76
2022/01/29 02:17:49;;;;;;;4.77;1.07;;;30.80;99.90;;;;;;5032527;28;20029;-76
2022/01/29 02:20:19;;;;;;;3.33;0.90;;;31.10;99.90;;;;;;5031244;28;20483;-77
2022/01/29 02:22:47;;;;;;;5.95;1.00;;;31.20;99.90;;;;;;5032569;28;20037;-78
2022/01/29 02:25:51;;;;;;;4.68;1.10;;;31.50;99.90;;;;;;5031231;28;20040;-76
2022/01/29 02:28:20;;;;;;;3.78;1.00;;;31.20;99.90;;;;;;5031330;28;20367;-78
2022/01/29 02:30:59;;;;;;;5.65;1.15;;;31.00;99.90;;;;;;5032429;28;20014;-77
2022/01/29 02:33:28;;;;;;;5.45;0.90;;;31.10;99.90;;;;;;5031182;28;20437;-76
2022/01/29 02:35:57;;;;;;;3.97;0.80;;;31.20;99.90;;;;;;5032487;28;20068;-79
2022/01/29 02:38:26;;;;;;;3.67;0.85;;;31.20;99.90;;;;;;5032441;28;20433;-79
2022/01/29 02:41:00;;;;;;;4.03;1.10;;;31.30;99.90;;;;;;5032338;28;20104;-76
2022/01/29 02:43:35;;;;;;;4.55;1.00;;;31.60;99.90;;;;;;5032537;28;20030;-77
2022/01/29 02:48:48;;;;;;;4.78;1.08;;;31.70;99.90;;;;;;5032576;28;20052;-77
2022/01/29 02:51:16;;;;;;;5.60;1.23;;;31.70;99.90;;;;;;5031020;28;20036;-77
2022/01/29 02:53:43;;;;;;;5.45;1.00;;;31.60;99.90;;;;;;5031012;28;20483;-77
2022/01/29 02:56:11;;;;;;;4.15;0.82;;;31.80;99.90;;;;;;5031048;28;20053;-78
2022/01/29 02:58:38;;;;;;;4.18;0.85;;;32.00;99.90;;;;;;5034350;28;20092;-78
2022/01/29 03:01:07;;;;;;;4.53;0.80;;;31.90;99.90;;;;;;5035879;28;20482;-77
2022/01/29 03:03:35;;;;;;;4.43;0.98;;;32.00;99.90;;;;;;5034314;28;20032;-76
2022/01/29 03:06:07;;;;;;;4.03;0.80;;;32.10;99.90;;;;;;5035511;28;20052;-76
2022/01/29 03:08:38;;;;;;;5.18;1.10;;;32.00;99.90;;;;;;5035643;28;20495;-77
2022/01/29 03:11:06;;;;;;;3.50;0.70;;;31.90;99.90;;;;;;5035460;28;20025;-78
2022/01/29 03:13:34;;;;;;;2.72;0.90;;;31.80;99.90;;;;;;5035436;28;20025;-78
2022/01/29 03:16:01;;;;;;;4.50;0.90;;;31.80;99.90;;;;;;5035431;28;20022;-77
2022/01/29 03:18:29;;;;;;;3.60;0.80;;;31.60;99.90;;;;;;5035498;28;20386;-78
2022/01/29 03:20:56;;;;;;;3.85;0.70;;;31.60;99.90;;;;;;5034116;28;20022;-76
2022/01/29 03:23:23;;;;;;;4.15;0.80;;;31.70;99.90;;;;;;5035457;28;20053;-78
2022/01/29 03:25:51;;;;;;;3.58;0.75;;;31.60;99.90;;;;;;5035217;28;20017;-77
2022/01/29 03:28:18;;;;;;;3.00;0.80;;;31.00;99.90;;;;;;5035284;28;20021;-77
2022/01/29 03:30:45;;;;;;;4.72;1.25;;;30.70;99.90;;;;;;5035253;28;20029;-77
2022/01/29 03:33:13;;;;;;;5.38;0.95;;;30.70;99.90;;;;;;5035123;28;20018;-77
2022/01/29 03:35:40;;;;;;;3.65;0.90;;;30.70;99.90;;;;;;5033666;28;20028;-79
2022/01/29 03:38:07;;;;;;;4.88;1.10;;;30.90;99.90;;;;;;5035070;28;20136;-77
2022/01/29 03:40:35;;;;;;;7.43;1.23;;;30.70;99.90;;;;;;5035142;28;20063;-76
2022/01/29 03:43:07;;;;;;;6.03;1.10;;;30.90;99.90;;;;;;5034961;28;20064;-75
2022/01/29 03:45:35;;;;;;;7.80;1.10;;;30.80;99.90;;;;;;5033581;28;20405;-77
2022/01/29 03:48:03;;;;;;;4.55;1.08;;;30.40;99.90;;;;;;5033439;28;20029;-77
2022/01/29 03:50:30;;;;;;;4.45;1.00;;;30.10;99.90;;;;;;5034930;28;20017;-76
2022/01/29 03:52:57;;;;;;;4.05;0.95;;;30.30;99.90;;;;;;5033562;28;20021;-78
2022/01/29 03:55:25;;;;;;;6.82;1.27;;;30.40;99.90;;;;;;5034892;28;20048;-77
2022/01/29 03:57:52;;;;;;;4.70;0.90;;;30.10;99.90;;;;;;5034635;28;20021;-76
2022/01/29 04:00:21;;;;;;;7.28;1.33;;;30.30;99.90;;;;;;5033432;28;20403;-77
2022/01/29 04:02:49;;;;;;;7.32;1.55;;;30.10;99.90;;;;;;5033535;28;20461;-76
2022/01/29 04:05:17;;;;;;;9.68;1.65;;;30.10;99.90;;;;;;5033289;28;20054;-78
2022/01/29 04:07:45;;;;;;;8.23;1.52;;;30.10;99.90;;;;;;5033039;28;20083;-77
2022/01/29 04:10:12;;;;;;;10.60;1.50;;;30.30;99.90;;;;;;5033876;28;20045;-76
2022/01/29 04:12:45;;;;;;;6.22;1.83;;;30.30;99.90;;;;;;5032947;28;20032;-78
2022/01/29 04:15:12;;;;;;;6.85;1.83;;;30.60;99.90;;;;;;5034473;28;20110;-77
2022/01/29 04:17:40;;;;;;;8.10;1.75;;;30.80;99.90;;;;;;5034174;28;20017;-79
2022/01/29 04:20:08;;;;;;;8.77;1.70;;;30.60;99.90;;;;;;5034427;28;20047;-77
2022/01/29 04:22:36;;;;;;;7.97;1.63;;;30.30;99.90;;;;;;5032964;28;20034;-76
2022/01/29 04:25:03;;;;;;;7.47;1.50;;;30.10;99.90;;;;;;5032859;28;20029;-75
2022/01/29 04:27:36;;;;;;;10.63;2.05;;;29.80;99.90;;;;;;5033882;28;20071;-76
2022/01/29 04:30:26;;;;;;;7.03;1.60;;;29.60;99.90;;;;;;5034361;28;20024;-78
2022/01/29 04:35:21;;;;;;;11.75;2.20;;;29.30;99.90;;;;;;5034268;28;20017;-75
2022/01/29 04:37:50;;;;;;;10.38;1.98;;;29.00;99.90;;;;;;5034012;28;20021;-76
2022/01/29 04:40:18;;;;;;;9.45;2.17;;;29.20;99.90;;;;;;5033905;28;20044;-75
2022/01/29 04:42:46;;;;;;;8.77;1.52;;;29.00;99.90;;;;;;5033693;28;20022;-75
2022/01/29 04:45:13;;;;;;;11.20;1.88;;;29.30;99.90;;;;;;5033747;28;20053;-77
2022/01/29 04:47:41;;;;;;;9.25;1.80;;;29.80;99.90;;;;;;5033773;28;20043;-76
2022/01/29 04:50:10;;;;;;;8.15;2.20;;;30.10;99.90;;;;;;5033764;28;20104;-76
2022/01/29 04:52:37;;;;;;;7.65;1.58;;;30.20;99.90;;;;;;5033689;28;20022;-77
2022/01/29 04:55:05;;;;;;;8.15;1.77;;;30.20;99.90;;;;;;5033860;28;20097;-77
2022/01/29 04:57:33;;;;;;;8.80;1.75;;;30.60;99.90;;;;;;5033600;28;20103;-77
2022/01/29 05:00:00;;;;;;;9.23;1.67;;;30.80;99.90;;;;;;5033553;28;20049;-76
2022/01/29 05:02:27;;;;;;;8.75;1.75;;;31.10;99.90;;;;;;5033592;28;20051;-78
2022/01/29 05:04:55;;;;;;;7.65;1.55;;;30.90;99.90;;;;;;5033449;28;20112;-77
2022/01/29 05:07:22;;;;;;;10.57;1.90;;;30.90;99.90;;;;;;5033352;28;20493;-75
2022/01/29 05:09:49;;;;;;;11.60;1.75;;;30.40;99.90;;;;;;5033362;28;20021;-76
2022/01/29 05:12:23;;;;;;;10.80;2.30;;;30.20;99.90;;;;;;5032155;28;20025;-75
2022/01/29 05:15:17;;;;;;;10.25;2.00;;;30.20;99.90;;;;;;5033258;28;20046;-76
2022/01/29 05:28:48;;;;;;;9.93;2.10;;;31.50;99.90;;;;;;5033321;28;20489;-77
2022/01/29 05:31:15;;;;;;;11.48;2.00;;;31.50;99.90;;;;;;5033148;28;20028;-78
2022/01/29 05:33:43;;;;;;;9.50;2.50;;;31.20;99.90;;;;;;5031776;28;20041;-78
2022/01/29 05:36:10;;;;;;;7.97;2.22;;;30.90;99.90;;;;;;5031862;28;20394;-78
2022/01/29 05:38:39;;;;;;;11.00;2.17;;;30.50;99.90;;;;;;5031683;28;20028;-77
2022/01/29 05:41:07;;;;;;;9.90;2.58;;;29.80;99.90;;;;;;5032104;28;20026;-78
2022/01/29 05:43:34;;;;;;;7.70;1.88;;;29.90;99.90;;;;;;5031951;28;20030;-78
2022/01/29 05:46:02;;;;;;;11.23;2.25;;;29.70;99.90;;;;;;5032703;28;20045;-79
2022/01/29 05:48:29;;;;;;;11.30;2.47;;;29.30;99.90;;;;;;5031597;28;20030;-77
2022/01/29 05:50:56;;;;;;;11.40;2.33;;;29.00;99.90;;;;;;5033002;28;20156;-77
2022/01/29 05:53:24;;;;;;;10.82;2.05;;;29.10;99.90;;;;;;5033032;28;20051;-76
2022/01/29 05:55:51;;;;;;;9.32;2.15;;;29.10;99.90;;;;;;5032871;28;20478;-77
2022/01/29 05:58:18;;;;;;;11.55;1.95;;;28.90;99.90;;;;;;5032836;28;20028;-77
2022/01/29 06:00:46;;;;;;;11.52;2.92;;;28.70;99.90;;;;;;5032692;28;20027;-78
2022/01/29 06:03:13;;;;;;;10.20;2.80;;;28.50;99.90;;;;;;5032869;28;20038;-79
2022/01/29 06:05:40;;;;;;;12.68;2.97;;;28.20;99.90;;;;;;5032738;28;20064;-79
2022/01/29 06:08:08;;;;;;;11.15;2.70;;;27.80;99.90;;;;;;5032793;28;20025;-77
2022/01/29 06:10:35;;;;;;;15.68;2.38;;;27.60;99.90;;;;;;5032641;28;20447;-78
2022/01/29 06:13:03;;;;;;;10.43;2.03;;;27.40;99.90;;;;;;5032754;28;20025;-78
2022/01/29 06:15:36;;;;;;;12.38;2.78;;;27.30;99.90;;;;;;5032587;28;20041;-76
2022/01/29 06:18:04;;;;;;;14.93;2.85;;;27.20;99.90;;;;;;5032746;28;20501;-78
2022/01/29 06:20:31;;;;;;;16.00;3.40;;;27.20;99.90;;;;;;5032399;28;20026;-76
2022/01/29 06:22:59;;;;;;;15.18;3.55;;;27.00;99.90;;;;;;5031345;28;20041;-78
2022/01/29 06:25:26;;;;;;;9.30;2.15;;;26.90;99.90;;;;;;5031147;28;20165;-78
2022/01/29 06:27:53;;;;;;;15.20;3.10;;;26.90;99.90;;;;;;5032528;28;20017;-78
2022/01/29 06:30:21;;;;;;;13.15;2.35;;;27.00;99.90;;;;;;5032787;28;20033;-78
2022/01/29 06:32:48;;;;;;;12.30;2.75;;;26.90;99.90;;;;;;5033288;28;20025;-77
2022/01/29 06:35:16;;;;;;;10.27;2.00;;;26.80;99.90;;;;;;5034827;28;20025;-78
2022/01/29 06:37:43;;;;;;;13.38;2.88;;;26.60;99.90;;;;;;5035946;28;20041;-77
2022/01/29 06:40:11;;;;;;;14.77;2.95;;;26.70;99.90;;;;;;5034739;28;20087;-76
2022/01/29 06:42:39;;;;;;;17.85;2.88;;;26.70;99.90;;;;;;5034748;28;20028;-76
2022/01/29 06:45:07;;;;;;;13.48;3.10;;;26.60;99.90;;;;;;5034378;28;20045;-78
2022/01/29 06:47:34;;;;;;;17.27;3.38;;;26.70;99.90;;;;;;5035683;28;20030;-76
2022/01/29 06:50:02;;;;;;;15.20;2.83;;;26.80;99.90;;;;;;5036000;28;20100;-77
2022/01/29 06:52:29;;;;;;;13.40;2.40;;;26.70;99.90;;;;;;5035818;28;20021;-76
2022/01/29 06:54:56;;;;;;;13.90;2.47;;;26.60;99.90;;;;;;5035993;28;20045;-76
2022/01/29 06:57:25;;;;;;;18.92;2.85;;;26.40;99.90;;;;;;5035711;28;20397;-77
2022/01/29 06:59:53;;;;;;;15.55;3.08;;;26.40;99.90;;;;;;5035673;28;20029;-76
2022/01/29 07:02:20;;;;;;;16.60;2.70;;;26.40;99.90;;;;;;5034156;28;20026;-77
2022/01/29 07:04:47;;;;;;;12.85;2.88;;;26.30;99.90;;;;;;5035505;28;20029;-76
2022/01/29 07:07:14;;;;;;;14.73;3.10;;;26.40;99.90;;;;;;5035517;28;20026;-75
2022/01/29 07:09:42;;;;;;;16.70;2.70;;;26.30;99.90;;;;;;5034261;28;20486;-76
2022/01/29 07:12:11;;;;;;;17.38;3.08;;;26.20;99.90;;;;;;5035201;28;20013;-76
2022/01/29 07:14:39;;;;;;;15.18;3.00;;;26.10;99.90;;;;;;5035482;28;20037;-75
2022/01/29 07:17:17;;;;;;;17.55;2.95;;;26.00;99.90;;;;;;5034053;28;20053;-76
2022/01/29 07:19:48;;;;;;;15.35;2.60;;;26.10;99.90;;;;;;5035462;28;20029;-76
2022/01/29 07:22:15;;;;;;;16.92;3.17;;;26.10;99.90;;;;;;5035199;28;20022;-76
2022/01/29 07:24:43;;;;;;;15.02;2.63;;;26.10;99.90;;;;;;5035474;28;20109;-76
2022/01/29 07:27:11;;;;;;;14.90;3.15;;;26.00;99.90;;;;;;5035182;28;20026;-76
2022/01/29 07:29:38;;;;;;;11.80;2.67;;;26.10;99.90;;;;;;5017370;28;20026;-76
2022/01/29 07:32:06;;;;;;;19.52;3.70;;;26.00;99.90;;;;;;5033768;28;20022;-77
2022/01/29 07:34:34;;;;;;;14.45;2.60;;;25.80;99.90;;;;;;5033952;28;20029;-77
2022/01/29 07:37:01;;;;;;;21.35;3.88;;;25.80;99.90;;;;;;5035026;28;20036;-76
2022/01/29 07:39:29;;;;;;;15.00;2.95;;;25.70;99.90;;;;;;5035001;28;20036;-75
2022/01/29 07:41:57;;;;;;;16.13;2.88;;;25.70;99.90;;;;;;5033728;28;20052;-77
2022/01/29 07:44:24;;;;;;;18.25;3.28;;;25.60;99.90;;;;;;5033507;28;20482;-75
2022/01/29 07:46:52;;;;;;;17.08;3.15;;;25.60;99.90;;;;;;5032855;28;20034;-77
2022/01/29 07:49:20;;;;;;;19.23;3.78;;;25.50;99.90;;;;;;5034852;28;20471;-75
2022/01/29 07:51:47;;;;;;;15.18;2.78;;;25.50;99.90;;;;;;5033326;28;20032;-78
2022/01/29 07:54:14;;;;;;;15.70;2.95;;;25.50;99.90;;;;;;5034031;28;20071;-76
2022/01/29 07:56:43;;;;;;;14.43;3.03;;;25.50;99.90;;;;;;5034623;28;20025;-76
2022/01/29 07:59:11;;;;;;;19.30;3.35;;;25.30;99.90;;;;;;5034369;28;20049;-76
2022/01/29 08:01:38;;;;;;;16.65;3.08;;;25.30;99.90;;;;;;5034652;28;20104;-74
2022/01/29 08:04:05;;;;;;;16.40;3.13;;;25.20;99.90;;;;;;5034444;28;20450;-76
2022/01/29 08:06:33;;;;;;;17.17;3.33;;;25.20;99.90;;;;;;5033134;28;20025;-76
2022/01/29 08:09:00;;;;;;;18.92;3.40;;;25.10;99.90;;;;;;5032971;28;20021;-79
2022/01/29 08:11:28;;;;;;;16.80;3.63;;;25.00;99.90;;;;;;5033066;28;20018;-76
2022/01/29 08:13:55;;;;;;;20.73;3.47;;;25.00;99.90;;;;;;5032955;28;20022;-76
2022/01/29 08:16:22;;;;;;;17.35;3.42;;;25.00;99.90;;;;;;5034283;28;20029;-75
2022/01/29 08:18:50;;;;;;;17.33;3.30;;;25.00;99.90;;;;;;5034105;28;20389;-75
2022/01/29 08:21:18;;;;;;;16.48;3.78;;;25.00;99.90;;;;;;5034231;28;20032;-75
2022/01/29 08:23:46;;;;;;;20.17;3.97;;;25.00;99.90;;;;;;5034108;28;20068;-75
2022/01/29 08:26:13;;;;;;;14.57;3.10;;;25.10;99.90;;;;;;5032752;28;20090;-76
2022/01/29 08:28:41;;;;;;;23.95;4.93;;;25.00;99.90;;;;;;5032683;28;20031;-77
2022/01/29 08:31:09;;;;;;;18.08;3.47;;;25.00;99.90;;;;;;5034071;28;20018;-75
2022/01/29 08:33:37;;;;;;;20.10;3.92;;;25.00;99.90;;;;;;5032685;28;20100;-76
2022/01/29 08:36:05;;;;;;;18.25;3.75;;;24.90;99.90;;;;;;5033956;28;20497;-75
2022/01/29 08:38:32;;;;;;;17.40;3.60;;;25.00;99.90;;;;;;5033840;28;20025;-76
2022/01/29 08:41:00;;;;;;;20.10;3.78;;;25.00;99.90;;;;;;5033970;28;20437;-74
2022/01/29 08:43:28;;;;;;;22.17;4.32;;;25.00;99.90;;;;;;5033739;28;20509;-76
2022/01/29 08:45:56;;;;;;;18.75;3.22;;;24.90;99.90;;;;;;5033681;28;20038;-78
2022/01/29 08:48:23;;;;;;;17.35;3.58;;;24.80;99.90;;;;;;5033578;28;20363;-76
2022/01/29 08:50:50;;;;;;;17.33;2.95;;;24.80;99.90;;;;;;5033679;28;20021;-76
2022/01/29 08:53:19;;;;;;;18.45;2.70;;;24.80;99.90;;;;;;5033665;28;20022;-76
2022/01/29 08:55:47;;;;;;;23.77;3.75;;;24.80;99.90;;;;;;5031861;28;20031;-76
2022/01/29 08:58:14;;;;;;;18.45;3.35;;;24.80;99.90;;;;;;5033507;28;20364;-78
2022/01/29 09:00:44;;;;;;;16.75;3.00;;;24.80;99.90;;;;;;5033328;28;20075;-76
2022/01/29 09:03:12;;;;;;;;;;;24.80;99.90;;;;;;5032652;28;20532;-75
2022/01/29 09:05:40;;;;;;;18.85;3.60;;;24.80;99.90;;;;;;5033333;28;20370;-75
2022/01/29 09:08:07;;;;;;;21.23;3.58;;;24.80;99.90;;;;;;5033428;28;20482;-76
2022/01/29 09:10:35;;;;;;;18.33;3.60;;;24.80;99.90;;;;;;5033315;28;20026;-74
2022/01/29 09:13:03;;;;;;;21.42;3.60;;;24.80;99.90;;;;;;5033322;28;20067;-75
2022/01/29 09:15:31;;;;;;;22.35;4.00;;;24.80;99.90;;;;;;5031835;28;20032;-75
2022/01/29 09:17:58;;;;;;;16.48;3.35;;;24.70;99.90;;;;;;5033279;28;20164;-75
2022/01/29 09:20:26;;;;;;;19.90;3.97;;;24.70;99.90;;;;;;5031778;28;20033;-75
2022/01/29 09:22:53;;;;;;;19.05;3.78;;;24.70;99.90;;;;;;5033133;28;20022;-78
2022/01/29 09:25:21;;;;;;;16.52;3.30;;;24.60;99.90;;;;;;5031878;28;20120;-75
2022/01/29 09:27:48;;;;;;;15.05;3.22;;;24.60;99.90;;;;;;5033111;28;20108;-75
2022/01/29 09:30:16;;;;;;;19.30;3.63;;;24.60;99.90;;;;;;5031796;28;20032;-75
2022/01/29 09:32:43;;;;;;;20.90;3.97;;;24.60;99.90;;;;;;5033057;28;20498;-75
2022/01/29 09:35:10;;;;;;;21.20;3.95;;;24.60;99.90;;;;;;5033000;28;20471;-79
2022/01/29 09:37:38;;;;;;;25.33;4.25;;;24.60;99.90;;;;;;5031763;28;20025;-74
2022/01/29 09:40:06;;;;;;;20.13;3.67;;;24.60;99.90;;;;;;5033056;28;20047;-75
2022/01/29 09:42:35;;;;;;;25.45;4.55;;;24.60;99.90;;;;;;5033007;28;20399;-77
2022/01/29 09:45:03;;;;;;;24.67;4.28;;;24.60;99.90;;;;;;5032764;28;20052;-74
2022/01/29 09:47:31;;;;;;;19.13;3.70;;;24.60;99.90;;;;;;5032876;28;20060;-74
2022/01/29 09:49:59;;;;;;;19.83;3.65;;;24.60;99.90;;;;;;5032891;28;20478;-75
2022/01/29 09:52:26;;;;;;;19.15;3.85;;;24.60;99.90;;;;;;5032895;28;20032;-74
2022/01/29 09:54:54;;;;;;;20.67;3.78;;;24.60;99.90;;;;;;5032886;28;20022;-74
2022/01/29 09:57:21;;;;;;;18.35;4.63;;;24.50;99.90;;;;;;5031571;28;20124;-75
2022/01/29 09:59:50;;;;;;;20.58;4.00;;;24.60;99.90;;;;;;5032875;28;20060;-74
2022/01/29 10:02:19;;;;;;;19.15;4.07;;;24.60;99.90;;;;;;5031468;28;20051;-75
2022/01/29 10:04:53;;;;;;;27.45;4.43;;;24.50;99.90;;;;;;5032696;28;20433;-75
2022/01/29 10:07:24;;;;;;;20.77;3.70;;;24.50;99.90;;;;;;5031406;28;20406;-74
2022/01/29 10:09:53;;;;;;;19.67;4.30;;;24.50;99.90;;;;;;5036843;28;20538;-74
2022/01/29 10:12:26;;;;;;;22.35;4.43;;;24.50;99.90;;;;;;5035483;28;20022;-74
2022/01/29 10:15:08;;;;;;;25.58;4.40;;;24.50;99.90;;;;;;5036710;28;20026;-75
2022/01/29 10:17:51;;;;;;;21.42;3.92;;;24.50;99.90;;;;;;5036719;28;20025;-75
2022/01/29 10:20:27;;;;;;;21.10;3.47;;;24.40;99.90;;;;;;5036666;28;20371;-74
2022/01/29 10:23:02;;;;;;;19.75;3.80;;;24.50;99.90;;;;;;5036624;28;20032;-75
2022/01/29 10:25:32;;;;;;;20.02;4.38;;;24.40;99.90;;;;;;5035545;28;20029;-75
2022/01/29 10:28:18;;;;;;;21.15;4.10;;;24.40;99.90;;;;;;5036414;28;20025;-75
2022/01/29 10:30:51;;;;;;;20.05;4.00;;;24.50;99.90;;;;;;5036499;28;20029;-75
2022/01/29 10:33:22;;;;;;;20.80;3.60;;;24.40;99.90;;;;;;5036311;28;20022;-74
2022/01/29 10:35:54;;;;;;;20.65;3.65;;;24.50;99.90;;;;;;5036361;28;20107;-74
2022/01/29 10:38:27;;;;;;;20.23;3.67;;;24.50;99.90;;;;;;5036292;28;20045;-76
2022/01/29 10:41:23;;;;;;;22.88;3.80;;;24.40;99.90;;;;;;5036251;28;20065;-75
2022/01/29 10:46:50;;;;;;;24.23;3.30;;;24.40;99.90;;;;;;5036270;28;20120;-76
2022/01/29 10:49:27;;;;;;;20.67;3.58;;;24.40;99.90;;;;;;5034788;28;20394;-75
2022/01/29 10:52:16;;;;;;;23.95;4.25;;;24.40;99.90;;;;;;5036025;28;20026;-73
2022/01/29 10:54:51;;;;;;;19.17;3.10;;;24.40;99.90;;;;;;5036072;28;20549;-73
2022/01/29 10:57:19;;;;;;;20.98;4.55;;;24.30;99.90;;;;;;5035950;28;20447;-72
2022/01/29 10:59:52;;;;;;;21.75;3.35;;;24.20;99.90;;;;;;5035775;28;20049;-74
2022/01/29 11:02:22;;;;;;;25.05;4.40;;;24.20;99.90;;;;;;5035771;28;20021;-73
2022/01/29 11:04:50;;;;;;;21.83;4.05;;;24.10;99.90;;;;;;5034381;28;20504;-72
2022/01/29 11:07:26;;;;;;;24.40;4.07;;;24.00;99.90;;;;;;5035644;28;20057;-73
2022/01/29 11:09:53;;;;;;;22.60;4.32;;;24.00;99.90;;;;;;5034375;28;20474;-73
2022/01/29 11:12:25;;;;;;;25.38;3.97;;;24.00;99.90;;;;;;5034359;28;20025;-74
2022/01/29 11:15:04;;;;;;;22.02;3.88;;;23.90;99.90;;;;;;5035471;28;20409;-73
2022/01/29 11:17:33;;;;;;;18.38;3.08;;;23.80;99.90;;;;;;5035593;28;20025;-73
2022/01/29 11:20:01;;;;;;;22.02;3.63;;;23.70;99.90;;;;;;5035207;28;20021;-73
2022/01/29 11:22:40;;;;;;;26.30;3.40;;;23.70;99.90;;;;;;5034227;28;20026;-72
2022/01/29 11:25:21;;;;;;;18.08;3.75;;;23.70;99.90;;;;;;5034123;28;20025;-74
2022/01/29 11:28:08;;;;;;;21.50;3.60;;;23.60;99.90;;;;;;5035238;28;20064;-74
2022/01/29 11:30:35;;;;;;;20.02;3.33;;;23.60;99.90;;;;;;5035153;28;20013;-73
2022/01/29 11:33:02;;;;;;;23.27;4.30;;;23.70;99.90;;;;;;5035264;28;20386;-73
2022/01/29 11:35:31;;;;;;;21.00;3.50;;;23.60;99.90;;;;;;5035282;28;20021;-72
2022/01/29 11:38:06;;;;;;;23.30;3.90;;;23.60;99.90;;;;;;5033895;28;20553;-72
2022/01/29 11:40:53;;;;;;;18.85;3.60;;;23.60;99.90;;;;;;5033809;28;20056;-72
2022/01/29 11:43:20;;;;;;;23.67;3.78;;;23.60;99.90;;;;;;5033848;28;20142;-73
2022/01/29 11:46:04;;;;;;;23.58;3.40;;;23.60;99.90;;;;;;5033512;28;20565;-73
2022/01/29 11:48:38;;;;;;;26.00;4.28;;;23.50;99.90;;;;;;5034873;28;20509;-73
2022/01/29 11:51:10;;;;;;;19.35;3.40;;;23.50;99.90;;;;;;5033681;28;20029;-73
2022/01/29 11:53:52;;;;;;;26.13;3.60;;;23.50;99.90;;;;;;5035009;28;20391;-73
2022/01/29 11:56:34;;;;;;;22.40;3.42;;;23.50;99.90;;;;;;5034878;28;20021;-73
2022/01/29 11:59:28;;;;;;;20.20;3.67;;;23.50;99.90;;;;;;5034725;28;20026;-73
2022/01/29 12:01:58;;;;;;;23.70;3.83;;;23.50;99.90;;;;;;5032444;28;20044;-73
2022/01/29 12:04:53;;;;;;;26.23;5.22;;;23.50;99.90;;;;;;5034665;28;20018;-73
2022/01/29 12:09:59;;;;;;;21.10;3.47;;;23.50;99.90;;;;;;5034520;28;20028;-73
2022/01/29 12:12:28;;;;;;;17.08;3.45;;;23.50;99.90;;;;;;5033322;28;20025;-72
2022/01/29 12:15:18;;;;;;;19.50;3.45;;;23.50;99.90;;;;;;5034498;28;20029;-72
2022/01/29 12:17:57;;;;;;;21.50;3.47;;;23.50;99.90;;;;;;5032995;28;20478;-72
2022/01/29 12:20:26;;;;;;;22.42;3.50;;;23.60;99.90;;;;;;5033112;28;20025;-72
2022/01/29 12:23:05;;;;;;;19.05;3.85;;;23.60;99.90;;;;;;5034278;28;20496;-72
2022/01/29 12:25:32;;;;;;;18.63;3.97;;;23.70;99.90;;;;;;5034469;28;20075;-72
2022/01/29 12:28:05;;;;;;;16.70;3.55;;;23.60;99.90;;;;;;5034068;28;20032;-73
2022/01/29 12:30:35;;;;;;;19.63;2.55;;;23.60;99.90;;;;;;5033515;28;20028;-73
2022/01/29 12:33:04;;;;;;;20.03;3.47;;;23.70;99.90;;;;;;5034089;28;20032;-74
2022/01/29 12:35:45;;;;;;;20.55;2.92;;;23.70;99.90;;;;;;5034026;28;20092;-71
2022/01/29 12:38:34;;;;;;;18.83;4.45;;;23.60;99.90;;;;;;5034301;28;20076;-72
2022/01/29 12:41:07;;;;;;;19.25;3.17;;;23.70;99.90;;;;;;5034155;28;20097;-72
2022/01/29 12:44:01;;;;;;;19.33;3.38;;;23.60;99.90;;;;;;5032623;28;20039;-73
2022/01/29 12:46:30;;;;;;;15.07;3.30;;;23.70;99.90;;;;;;5033738;28;20052;-73
2022/01/29 12:49:11;;;;;;;22.80;3.47;;;23.60;99.90;;;;;;5033913;28;20030;-72
2022/01/29 12:51:49;;;;;;;;;;;23.60;99.90;;;;;;5034630;28;20026;-72
2022/01/29 12:54:16;;;;;;;16.00;2.67;;;23.60;99.90;;;;;;5032594;28;19916;-72
2022/01/29 12:56:44;;;;;;;17.58;3.53;;;23.60;99.90;;;;;;5033633;28;20025;-72
2022/01/29 12:59:13;;;;;;;16.70;3.03;;;23.60;99.90;;;;;;5033574;28;20052;-72
2022/01/29 13:01:43;;;;;;;17.67;3.90;;;23.60;99.90;;;;;;5033721;28;20494;-72
2022/01/29 13:04:20;;;;;;;19.15;2.95;;;23.60;99.90;;;;;;5033903;28;20120;-73
2022/01/29 13:06:58;;;;;;;17.98;3.13;;;23.60;99.90;;;;;;5033516;28;20068;-73
2022/01/29 13:09:29;;;;;;;18.75;2.72;;;23.60;99.90;;;;;;5033500;28;20026;-73
2022/01/29 13:11:57;;;;;;;;;;;23.60;99.90;;;;;;5033916;28;20018;-73
2022/01/29 13:14:25;;;;;;;16.67;2.85;;;23.60;99.90;;;;;;5033387;28;19992;-72
2022/01/29 13:16:55;;;;;;;23.25;4.53;;;23.60;99.90;;;;;;5033422;28;20029;-73
2022/01/29 13:19:24;;;;;;;19.98;3.30;;;23.60;99.90;;;;;;5033403;28;20102;-72